首页
METAR-TAF:

METAR-TAF

机场 :

皮斯里弗, 艾伯塔, 加拿大

纬度: 56-14N, 经度: 117-26W, 海拔: 571米

当前天气观测

该预报发布于15分钟前的10:24 UTC
风速11节,风向西北
温度 -4°C
湿度 86%
气压 1000 hPa
能見度: 24.1公里
多云层高于8800英尺

METAR: CYPE 251024Z 32011KT 15SM BKN088 M04/M06 A2954 RMK AC6 WSHFT 1009 SLP035

时间: 03:39 (10:39 UTC)

预报

该预报发布于4小时和0分钟前的06:39 UTC
预报有效从25日的 07点(UTC)到 25日的 19点(UTC)
风速8节,风向北转西北
能見度: 10公里
多云层高于16000英尺
短暂存在
从 25日的 07点(UTC)到 25日的 09点(UTC)
散云层高于16000英尺
从 25日的 0900点(UTC)
风速8节,风向西转西北
能見度: 10公里
多云层高于5000英尺
短暂存在
从 25日的 09点(UTC)到 25日的 19点(UTC)
能見度: 8.0公里
小雪

TAF: CYPE 250639Z 2507/2519 34008KT P6SM BKN160 TEMPO 2507/2509 SCT160 FM250900 30008KT P6SM BKN050 TEMPO 2509/2519 5SM -SN RMK NXT FCST BY 251300Z

超过4000个机场的气象观测和天气预报(METAR&TAF报告)。

可查询的气象台以黄色和红色小点在地图上表示。

将鼠标移到小点上方,可查看气象台名称。

然后点击查看天气观测和预报。

如需切换地图:点击带黑十字的绿色按钮放大地图;点击带横线的绿色按钮缩小地图;或者点击绿色箭头查看邻近地区的地图。


METAR-TAF: